TAF Text Data
IDs:
Format:
Raw Decoded Include METAR

Data at: 0326 UTC 24 Jun 2021

KBFF 232320Z 2400/2424 30009KT P6SM VCTS BKN100CB
  FM240200 01009KT P6SM BKN150
  FM241500 08012KT P6SM BKN080